sensor_id;sensor_type;location;lat;lon;timestamp;P1;durP1;ratioP1;P2;durP2;ratioP2
479;SDS011;226;48.606;9.096;2024-01-06T00:02:17;7.17;;;5.20;;
479;SDS011;226;48.606;9.096;2024-01-06T00:04:45;12.43;;;7.53;;
479;SDS011;226;48.606;9.096;2024-01-06T00:07:13;11.90;;;7.57;;
479;SDS011;226;48.606;9.096;2024-01-06T00:09:41;12.03;;;7.97;;
479;SDS011;226;48.606;9.096;2024-01-06T00:12:11;17.93;;;8.40;;
479;SDS011;226;48.606;9.096;2024-01-06T00:14:39;17.30;;;8.30;;
479;SDS011;226;48.606;9.096;2024-01-06T00:17:10;6.57;;;5.43;;
479;SDS011;226;48.606;9.096;2024-01-06T00:19:38;12.53;;;6.33;;
479;SDS011;226;48.606;9.096;2024-01-06T00:22:06;14.03;;;5.90;;
479;SDS011;226;48.606;9.096;2024-01-06T00:24:35;8.07;;;5.27;;
479;SDS011;226;48.606;9.096;2024-01-06T00:27:03;8.97;;;5.50;;
479;SDS011;226;48.606;9.096;2024-01-06T00:29:33;9.80;;;5.80;;
479;SDS011;226;48.606;9.096;2024-01-06T00:32:01;18.50;;;7.53;;
479;SDS011;226;48.606;9.096;2024-01-06T00:34:29;10.23;;;7.90;;
479;SDS011;226;48.606;9.096;2024-01-06T00:36:57;10.17;;;7.00;;
479;SDS011;226;48.606;9.096;2024-01-06T00:39:25;15.57;;;8.83;;
479;SDS011;226;48.606;9.096;2024-01-06T00:41:53;13.67;;;8.80;;
479;SDS011;226;48.606;9.096;2024-01-06T00:44:20;16.57;;;10.97;;
479;SDS011;226;48.606;9.096;2024-01-06T00:46:50;22.73;;;11.90;;
479;SDS011;226;48.606;9.096;2024-01-06T00:49:18;20.57;;;10.63;;
479;SDS011;226;48.606;9.096;2024-01-06T00:51:46;10.00;;;7.50;;
479;SDS011;226;48.606;9.096;2024-01-06T00:54:14;9.90;;;6.43;;
479;SDS011;226;48.606;9.096;2024-01-06T00:56:42;8.23;;;5.10;;
479;SDS011;226;48.606;9.096;2024-01-06T00:59:11;6.37;;;5.10;;
479;SDS011;226;48.606;9.096;2024-01-06T01:01:40;9.90;;;5.60;;
479;SDS011;226;48.606;9.096;2024-01-06T01:04:11;8.27;;;6.60;;
479;SDS011;226;48.606;9.096;2024-01-06T01:06:40;7.40;;;5.90;;
479;SDS011;226;48.606;9.096;2024-01-06T01:09:10;18.27;;;6.80;;
479;SDS011;226;48.606;9.096;2024-01-06T01:11:40;7.60;;;6.27;;
479;SDS011;226;48.606;9.096;2024-01-06T01:14:09;14.90;;;6.30;;
479;SDS011;226;48.606;9.096;2024-01-06T01:16:38;8.20;;;5.13;;
479;SDS011;226;48.606;9.096;2024-01-06T01:19:06;7.60;;;5.23;;
479;SDS011;226;48.606;9.096;2024-01-06T01:21:36;11.33;;;6.10;;
479;SDS011;226;48.606;9.096;2024-01-06T01:24:04;9.77;;;6.50;;
479;SDS011;226;48.606;9.096;2024-01-06T01:26:32;6.67;;;5.37;;
479;SDS011;226;48.606;9.096;2024-01-06T01:29:00;8.20;;;5.03;;
479;SDS011;226;48.606;9.096;2024-01-06T01:31:29;8.87;;;6.27;;
479;SDS011;226;48.606;9.096;2024-01-06T01:33:57;7.30;;;5.57;;
479;SDS011;226;48.606;9.096;2024-01-06T01:36:25;9.60;;;6.07;;
479;SDS011;226;48.606;9.096;2024-01-06T01:38:55;11.40;;;6.60;;
479;SDS011;226;48.606;9.096;2024-01-06T01:41:24;10.07;;;6.00;;
479;SDS011;226;48.606;9.096;2024-01-06T01:43:52;11.00;;;6.00;;
479;SDS011;226;48.606;9.096;2024-01-06T01:46:25;6.93;;;5.20;;
479;SDS011;226;48.606;9.096;2024-01-06T01:48:53;7.33;;;5.63;;
479;SDS011;226;48.606;9.096;2024-01-06T01:51:23;9.10;;;5.77;;
479;SDS011;226;48.606;9.096;2024-01-06T01:53:55;4.30;;;3.90;;
479;SDS011;226;48.606;9.096;2024-01-06T01:56:24;6.60;;;4.37;;
479;SDS011;226;48.606;9.096;2024-01-06T01:58:53;8.17;;;4.70;;
479;SDS011;226;48.606;9.096;2024-01-06T02:01:21;6.70;;;4.30;;
479;SDS011;226;48.606;9.096;2024-01-06T02:03:50;8.67;;;4.13;;
479;SDS011;226;48.606;9.096;2024-01-06T02:06:18;8.27;;;3.60;;
479;SDS011;226;48.606;9.096;2024-01-06T02:08:46;5.20;;;4.10;;
479;SDS011;226;48.606;9.096;2024-01-06T02:11:15;8.10;;;4.93;;
479;SDS011;226;48.606;9.096;2024-01-06T02:13:43;5.07;;;3.30;;
479;SDS011;226;48.606;9.096;2024-01-06T02:16:12;3.60;;;3.40;;
479;SDS011;226;48.606;9.096;2024-01-06T02:18:40;7.73;;;4.20;;
479;SDS011;226;48.606;9.096;2024-01-06T02:21:08;6.30;;;4.63;;
479;SDS011;226;48.606;9.096;2024-01-06T02:23:39;6.90;;;4.00;;
479;SDS011;226;48.606;9.096;2024-01-06T02:26:07;6.50;;;3.70;;
479;SDS011;226;48.606;9.096;2024-01-06T02:28:35;4.43;;;4.03;;
479;SDS011;226;48.606;9.096;2024-01-06T02:31:03;3.70;;;3.40;;
479;SDS011;226;48.606;9.096;2024-01-06T02:33:31;4.50;;;3.10;;
479;SDS011;226;48.606;9.096;2024-01-06T02:36:00;4.03;;;3.60;;
479;SDS011;226;48.606;9.096;2024-01-06T02:38:28;4.30;;;3.90;;
479;SDS011;226;48.606;9.096;2024-01-06T02:40:57;4.00;;;3.43;;
479;SDS011;226;48.606;9.096;2024-01-06T02:43:25;6.43;;;4.40;;
479;SDS011;226;48.606;9.096;2024-01-06T02:45:54;4.60;;;3.40;;
479;SDS011;226;48.606;9.096;2024-01-06T02:48:22;6.37;;;4.30;;
479;SDS011;226;48.606;9.096;2024-01-06T02:50:50;4.97;;;3.70;;
479;SDS011;226;48.606;9.096;2024-01-06T02:53:18;3.53;;;3.23;;
479;SDS011;226;48.606;9.096;2024-01-06T02:55:46;3.33;;;3.07;;
479;SDS011;226;48.606;9.096;2024-01-06T02:58:15;9.53;;;3.70;;
479;SDS011;226;48.606;9.096;2024-01-06T03:00:43;3.73;;;3.40;;
479;SDS011;226;48.606;9.096;2024-01-06T03:03:12;4.87;;;3.70;;
479;SDS011;226;48.606;9.096;2024-01-06T03:05:40;5.97;;;3.33;;
479;SDS011;226;48.606;9.096;2024-01-06T03:08:08;5.43;;;4.03;;
479;SDS011;226;48.606;9.096;2024-01-06T03:10:36;10.73;;;3.40;;
479;SDS011;226;48.606;9.096;2024-01-06T03:13:04;10.37;;;3.63;;
479;SDS011;226;48.606;9.096;2024-01-06T03:15:34;5.00;;;3.50;;
479;SDS011;226;48.606;9.096;2024-01-06T03:18:02;4.80;;;3.70;;
479;SDS011;226;48.606;9.096;2024-01-06T03:20:30;3.60;;;3.30;;
479;SDS011;226;48.606;9.096;2024-01-06T03:22:58;9.20;;;4.13;;
479;SDS011;226;48.606;9.096;2024-01-06T03:25:26;4.67;;;3.73;;
479;SDS011;226;48.606;9.096;2024-01-06T03:27:54;8.97;;;3.67;;
479;SDS011;226;48.606;9.096;2024-01-06T03:30:22;4.17;;;3.37;;
479;SDS011;226;48.606;9.096;2024-01-06T03:32:52;5.97;;;4.47;;
479;SDS011;226;48.606;9.096;2024-01-06T03:35:20;5.07;;;3.40;;
479;SDS011;226;48.606;9.096;2024-01-06T03:37:48;5.30;;;4.03;;
479;SDS011;226;48.606;9.096;2024-01-06T03:40:16;5.30;;;3.77;;
479;SDS011;226;48.606;9.096;2024-01-06T03:42:44;4.03;;;3.67;;
479;SDS011;226;48.606;9.096;2024-01-06T03:45:13;4.33;;;3.90;;
479;SDS011;226;48.606;9.096;2024-01-06T03:47:41;3.20;;;2.90;;
479;SDS011;226;48.606;9.096;2024-01-06T03:50:11;3.57;;;3.27;;
479;SDS011;226;48.606;9.096;2024-01-06T03:52:40;3.30;;;3.00;;
479;SDS011;226;48.606;9.096;2024-01-06T03:55:08;3.57;;;2.37;;
479;SDS011;226;48.606;9.096;2024-01-06T03:57:37;16.80;;;4.10;;
479;SDS011;226;48.606;9.096;2024-01-06T04:00:05;5.33;;;3.13;;
479;SDS011;226;48.606;9.096;2024-01-06T04:02:34;4.23;;;3.43;;
479;SDS011;226;48.606;9.096;2024-01-06T04:05:03;3.70;;;2.80;;
479;SDS011;226;48.606;9.096;2024-01-06T04:07:33;3.97;;;3.00;;
479;SDS011;226;48.606;9.096;2024-01-06T04:10:01;6.67;;;3.00;;
479;SDS011;226;48.606;9.096;2024-01-06T04:12:30;3.70;;;2.80;;
479;SDS011;226;48.606;9.096;2024-01-06T04:14:58;4.20;;;3.30;;
479;SDS011;226;48.606;9.096;2024-01-06T04:17:26;3.07;;;2.87;;
479;SDS011;226;48.606;9.096;2024-01-06T04:19:54;4.83;;;3.40;;
479;SDS011;226;48.606;9.096;2024-01-06T04:22:22;2.73;;;2.53;;
479;SDS011;226;48.606;9.096;2024-01-06T04:24:51;4.40;;;3.47;;
479;SDS011;226;48.606;9.096;2024-01-06T04:27:20;3.47;;;3.27;;
479;SDS011;226;48.606;9.096;2024-01-06T04:29:48;3.30;;;3.10;;
479;SDS011;226;48.606;9.096;2024-01-06T04:32:19;3.50;;;3.20;;
479;SDS011;226;48.606;9.096;2024-01-06T04:34:47;6.43;;;3.57;;
479;SDS011;226;48.606;9.096;2024-01-06T04:37:15;2.80;;;2.60;;
479;SDS011;226;48.606;9.096;2024-01-06T04:39:43;3.50;;;2.90;;
479;SDS011;226;48.606;9.096;2024-01-06T04:42:13;3.30;;;3.00;;
479;SDS011;226;48.606;9.096;2024-01-06T04:44:41;2.73;;;2.57;;
479;SDS011;226;48.606;9.096;2024-01-06T04:47:11;3.00;;;2.80;;
479;SDS011;226;48.606;9.096;2024-01-06T04:49:39;3.33;;;2.23;;
479;SDS011;226;48.606;9.096;2024-01-06T04:52:07;4.87;;;3.33;;
479;SDS011;226;48.606;9.096;2024-01-06T04:54:35;3.40;;;3.10;;
479;SDS011;226;48.606;9.096;2024-01-06T04:57:04;4.53;;;2.97;;
479;SDS011;226;48.606;9.096;2024-01-06T04:59:33;5.43;;;2.90;;
479;SDS011;226;48.606;9.096;2024-01-06T05:02:01;5.23;;;2.67;;
479;SDS011;226;48.606;9.096;2024-01-06T05:04:30;2.90;;;2.67;;
479;SDS011;226;48.606;9.096;2024-01-06T05:06:59;3.40;;;3.10;;
479;SDS011;226;48.606;9.096;2024-01-06T05:09:27;3.10;;;2.70;;
479;SDS011;226;48.606;9.096;2024-01-06T05:11:55;2.87;;;2.73;;
479;SDS011;226;48.606;9.096;2024-01-06T05:14:23;3.30;;;3.00;;
479;SDS011;226;48.606;9.096;2024-01-06T05:16:52;5.97;;;3.40;;
479;SDS011;226;48.606;9.096;2024-01-06T05:19:21;3.43;;;3.13;;
479;SDS011;226;48.606;9.096;2024-01-06T05:21:49;5.83;;;4.20;;
479;SDS011;226;48.606;9.096;2024-01-06T05:24:17;7.50;;;5.00;;
479;SDS011;226;48.606;9.096;2024-01-06T05:26:46;7.13;;;5.63;;
479;SDS011;226;48.606;9.096;2024-01-06T05:29:14;5.87;;;4.50;;
479;SDS011;226;48.606;9.096;2024-01-06T05:31:42;8.73;;;5.23;;
479;SDS011;226;48.606;9.096;2024-01-06T05:34:13;8.10;;;5.13;;
479;SDS011;226;48.606;9.096;2024-01-06T05:36:42;8.47;;;5.10;;
479;SDS011;226;48.606;9.096;2024-01-06T05:39:10;4.90;;;3.87;;
479;SDS011;226;48.606;9.096;2024-01-06T05:41:38;3.13;;;2.93;;
479;SDS011;226;48.606;9.096;2024-01-06T05:44:06;6.90;;;3.27;;
479;SDS011;226;48.606;9.096;2024-01-06T05:46:34;7.67;;;3.57;;
479;SDS011;226;48.606;9.096;2024-01-06T05:49:03;4.27;;;3.50;;
479;SDS011;226;48.606;9.096;2024-01-06T05:51:32;4.97;;;2.60;;
479;SDS011;226;48.606;9.096;2024-01-06T05:54:01;3.40;;;2.70;;
479;SDS011;226;48.606;9.096;2024-01-06T05:56:29;3.93;;;3.60;;
479;SDS011;226;48.606;9.096;2024-01-06T05:58:57;4.17;;;3.47;;
479;SDS011;226;48.606;9.096;2024-01-06T06:01:25;6.50;;;3.83;;
479;SDS011;226;48.606;9.096;2024-01-06T06:03:53;4.20;;;3.10;;
479;SDS011;226;48.606;9.096;2024-01-06T06:06:21;3.73;;;3.37;;
479;SDS011;226;48.606;9.096;2024-01-06T06:08:51;4.63;;;2.90;;
479;SDS011;226;48.606;9.096;2024-01-06T06:11:19;3.43;;;2.83;;
479;SDS011;226;48.606;9.096;2024-01-06T06:13:47;3.27;;;2.90;;
479;SDS011;226;48.606;9.096;2024-01-06T06:16:15;3.20;;;2.90;;
479;SDS011;226;48.606;9.096;2024-01-06T06:18:43;3.33;;;2.33;;
479;SDS011;226;48.606;9.096;2024-01-06T06:21:11;2.93;;;2.63;;
479;SDS011;226;48.606;9.096;2024-01-06T06:23:39;3.13;;;2.93;;
479;SDS011;226;48.606;9.096;2024-01-06T06:26:09;2.70;;;2.50;;
479;SDS011;226;48.606;9.096;2024-01-06T06:28:38;3.20;;;2.90;;
479;SDS011;226;48.606;9.096;2024-01-06T06:31:06;12.37;;;3.90;;
479;SDS011;226;48.606;9.096;2024-01-06T06:33:34;7.03;;;3.37;;
479;SDS011;226;48.606;9.096;2024-01-06T06:36:03;3.00;;;2.63;;
479;SDS011;226;48.606;9.096;2024-01-06T06:38:31;3.80;;;3.20;;
479;SDS011;226;48.606;9.096;2024-01-06T06:40:59;4.10;;;3.70;;
479;SDS011;226;48.606;9.096;2024-01-06T06:43:29;4.40;;;3.77;;
479;SDS011;226;48.606;9.096;2024-01-06T06:45:57;6.80;;;4.93;;
479;SDS011;226;48.606;9.096;2024-01-06T06:48:25;13.87;;;5.60;;
479;SDS011;226;48.606;9.096;2024-01-06T06:50:53;8.57;;;4.80;;
479;SDS011;226;48.606;9.096;2024-01-06T06:53:22;6.67;;;4.77;;
479;SDS011;226;48.606;9.096;2024-01-06T06:55:50;4.80;;;4.27;;
479;SDS011;226;48.606;9.096;2024-01-06T06:58:18;8.80;;;4.67;;
479;SDS011;226;48.606;9.096;2024-01-06T07:00:47;21.63;;;4.83;;
479;SDS011;226;48.606;9.096;2024-01-06T07:03:15;9.33;;;4.60;;
479;SDS011;226;48.606;9.096;2024-01-06T07:05:44;5.30;;;4.80;;
479;SDS011;226;48.606;9.096;2024-01-06T07:08:12;6.70;;;4.87;;
479;SDS011;226;48.606;9.096;2024-01-06T07:10:41;12.10;;;5.10;;
479;SDS011;226;48.606;9.096;2024-01-06T07:13:09;11.90;;;4.33;;
479;SDS011;226;48.606;9.096;2024-01-06T07:15:37;5.53;;;4.07;;
479;SDS011;226;48.606;9.096;2024-01-06T07:18:07;5.07;;;4.33;;
479;SDS011;226;48.606;9.096;2024-01-06T07:20:35;6.07;;;4.67;;
479;SDS011;226;48.606;9.096;2024-01-06T07:23:03;10.03;;;5.23;;
479;SDS011;226;48.606;9.096;2024-01-06T07:25:32;8.60;;;5.73;;
479;SDS011;226;48.606;9.096;2024-01-06T07:28:00;11.43;;;5.70;;
479;SDS011;226;48.606;9.096;2024-01-06T07:30:28;8.87;;;6.10;;
479;SDS011;226;48.606;9.096;2024-01-06T07:32:56;15.43;;;6.50;;
479;SDS011;226;48.606;9.096;2024-01-06T07:35:26;14.10;;;7.47;;
479;SDS011;226;48.606;9.096;2024-01-06T07:37:55;8.03;;;6.00;;
479;SDS011;226;48.606;9.096;2024-01-06T07:40:23;8.83;;;5.20;;
479;SDS011;226;48.606;9.096;2024-01-06T07:42:52;10.03;;;6.97;;
479;SDS011;226;48.606;9.096;2024-01-06T07:45:20;9.53;;;6.13;;
479;SDS011;226;48.606;9.096;2024-01-06T07:47:48;10.83;;;9.40;;
479;SDS011;226;48.606;9.096;2024-01-06T07:50:17;9.30;;;6.20;;
479;SDS011;226;48.606;9.096;2024-01-06T07:52:46;8.27;;;5.77;;
479;SDS011;226;48.606;9.096;2024-01-06T07:55:13;4.90;;;4.30;;
479;SDS011;226;48.606;9.096;2024-01-06T07:57:41;5.50;;;3.43;;
479;SDS011;226;48.606;9.096;2024-01-06T08:00:11;2.87;;;2.67;;
479;SDS011;226;48.606;9.096;2024-01-06T08:02:41;4.30;;;3.30;;
479;SDS011;226;48.606;9.096;2024-01-06T08:05:09;15.63;;;7.20;;
479;SDS011;226;48.606;9.096;2024-01-06T08:07:37;14.70;;;7.20;;
479;SDS011;226;48.606;9.096;2024-01-06T08:10:08;2.90;;;2.60;;
479;SDS011;226;48.606;9.096;2024-01-06T08:12:36;1.97;;;1.87;;
479;SDS011;226;48.606;9.096;2024-01-06T08:15:05;11.53;;;3.23;;
479;SDS011;226;48.606;9.096;2024-01-06T08:17:34;10.10;;;8.43;;
479;SDS011;226;48.606;9.096;2024-01-06T08:20:04;10.83;;;9.40;;
479;SDS011;226;48.606;9.096;2024-01-06T08:22:32;12.53;;;9.43;;
479;SDS011;226;48.606;9.096;2024-01-06T08:25:00;5.43;;;4.53;;
479;SDS011;226;48.606;9.096;2024-01-06T08:27:30;6.07;;;5.47;;
479;SDS011;226;48.606;9.096;2024-01-06T08:29:58;3.83;;;3.43;;
479;SDS011;226;48.606;9.096;2024-01-06T08:32:27;8.73;;;4.30;;
479;SDS011;226;48.606;9.096;2024-01-06T08:34:55;19.67;;;16.30;;
479;SDS011;226;48.606;9.096;2024-01-06T08:37:23;12.73;;;10.40;;
479;SDS011;226;48.606;9.096;2024-01-06T08:39:51;8.23;;;4.73;;
479;SDS011;226;48.606;9.096;2024-01-06T08:42:19;3.53;;;3.10;;
479;SDS011;226;48.606;9.096;2024-01-06T08:44:49;11.43;;;4.03;;
479;SDS011;226;48.606;9.096;2024-01-06T08:47:17;5.43;;;3.33;;
479;SDS011;226;48.606;9.096;2024-01-06T08:49:46;7.83;;;3.87;;
479;SDS011;226;48.606;9.096;2024-01-06T08:52:14;7.80;;;4.20;;
479;SDS011;226;48.606;9.096;2024-01-06T08:54:42;3.53;;;2.20;;
479;SDS011;226;48.606;9.096;2024-01-06T08:57:10;1.60;;;1.50;;
479;SDS011;226;48.606;9.096;2024-01-06T08:59:39;3.23;;;2.50;;
479;SDS011;226;48.606;9.096;2024-01-06T09:02:08;1.90;;;1.80;;
479;SDS011;226;48.606;9.096;2024-01-06T09:04:36;2.07;;;1.83;;
479;SDS011;226;48.606;9.096;2024-01-06T09:07:04;3.67;;;2.40;;
479;SDS011;226;48.606;9.096;2024-01-06T09:09:33;4.03;;;3.13;;
479;SDS011;226;48.606;9.096;2024-01-06T09:12:01;4.93;;;3.00;;
479;SDS011;226;48.606;9.096;2024-01-06T09:14:28;1.60;;;1.50;;
479;SDS011;226;48.606;9.096;2024-01-06T09:16:56;3.43;;;1.83;;
479;SDS011;226;48.606;9.096;2024-01-06T09:19:26;2.23;;;1.93;;
479;SDS011;226;48.606;9.096;2024-01-06T09:21:54;1.57;;;1.47;;
479;SDS011;226;48.606;9.096;2024-01-06T09:24:23;6.00;;;1.53;;
479;SDS011;226;48.606;9.096;2024-01-06T09:26:51;1.40;;;1.40;;
479;SDS011;226;48.606;9.096;2024-01-06T09:29:19;1.73;;;1.50;;
479;SDS011;226;48.606;9.096;2024-01-06T09:31:47;3.83;;;1.80;;
479;SDS011;226;48.606;9.096;2024-01-06T09:34:15;2.73;;;2.07;;
479;SDS011;226;48.606;9.096;2024-01-06T09:36:45;3.63;;;2.23;;
479;SDS011;226;48.606;9.096;2024-01-06T09:39:13;1.90;;;1.90;;
479;SDS011;226;48.606;9.096;2024-01-06T09:41:41;2.73;;;2.53;;
479;SDS011;226;48.606;9.096;2024-01-06T09:44:10;1.93;;;1.83;;
479;SDS011;226;48.606;9.096;2024-01-06T09:46:42;1.93;;;1.83;;
479;SDS011;226;48.606;9.096;2024-01-06T09:49:13;2.53;;;1.80;;
479;SDS011;226;48.606;9.096;2024-01-06T09:51:41;1.63;;;1.40;;
479;SDS011;226;48.606;9.096;2024-01-06T09:54:12;1.30;;;1.30;;
479;SDS011;226;48.606;9.096;2024-01-06T09:56:42;1.83;;;1.73;;
479;SDS011;226;48.606;9.096;2024-01-06T09:59:13;3.63;;;1.80;;
479;SDS011;226;48.606;9.096;2024-01-06T10:01:41;1.67;;;1.57;;
479;SDS011;226;48.606;9.096;2024-01-06T10:04:11;1.40;;;1.40;;
479;SDS011;226;48.606;9.096;2024-01-06T10:06:46;1.20;;;1.20;;
479;SDS011;226;48.606;9.096;2024-01-06T10:09:16;1.27;;;1.27;;
479;SDS011;226;48.606;9.096;2024-01-06T10:11:44;2.03;;;1.63;;
479;SDS011;226;48.606;9.096;2024-01-06T10:14:12;1.50;;;1.50;;
479;SDS011;226;48.606;9.096;2024-01-06T10:16:40;1.40;;;1.40;;
479;SDS011;226;48.606;9.096;2024-01-06T10:19:09;3.00;;;2.23;;
479;SDS011;226;48.606;9.096;2024-01-06T10:21:37;1.50;;;1.50;;
479;SDS011;226;48.606;9.096;2024-01-06T10:24:07;1.90;;;1.73;;
479;SDS011;226;48.606;9.096;2024-01-06T10:26:37;2.80;;;1.60;;
479;SDS011;226;48.606;9.096;2024-01-06T10:29:06;4.83;;;2.00;;
479;SDS011;226;48.606;9.096;2024-01-06T10:31:34;1.40;;;1.30;;
479;SDS011;226;48.606;9.096;2024-01-06T10:34:03;1.23;;;1.23;;
479;SDS011;226;48.606;9.096;2024-01-06T10:36:33;1.60;;;1.50;;
479;SDS011;226;48.606;9.096;2024-01-06T10:39:02;1.43;;;1.30;;
479;SDS011;226;48.606;9.096;2024-01-06T10:41:30;1.40;;;1.30;;
479;SDS011;226;48.606;9.096;2024-01-06T10:44:00;1.40;;;1.30;;
479;SDS011;226;48.606;9.096;2024-01-06T10:46:30;1.37;;;1.27;;
479;SDS011;226;48.606;9.096;2024-01-06T10:48:59;1.20;;;0.90;;
479;SDS011;226;48.606;9.096;2024-01-06T10:51:28;1.40;;;1.40;;
479;SDS011;226;48.606;9.096;2024-01-06T10:53:57;2.80;;;0.93;;
479;SDS011;226;48.606;9.096;2024-01-06T10:56:28;1.70;;;1.60;;
479;SDS011;226;48.606;9.096;2024-01-06T10:58:57;3.40;;;2.70;;
479;SDS011;226;48.606;9.096;2024-01-06T11:01:27;3.13;;;1.90;;
479;SDS011;226;48.606;9.096;2024-01-06T11:03:57;1.43;;;1.43;;
479;SDS011;226;48.606;9.096;2024-01-06T11:06:26;1.57;;;1.57;;
479;SDS011;226;48.606;9.096;2024-01-06T11:08:57;2.20;;;1.63;;
479;SDS011;226;48.606;9.096;2024-01-06T11:11:29;3.00;;;1.60;;
479;SDS011;226;48.606;9.096;2024-01-06T11:16:46;1.23;;;1.23;;
479;SDS011;226;48.606;9.096;2024-01-06T11:22:25;2.10;;;1.50;;
479;SDS011;226;48.606;9.096;2024-01-06T11:25:03;1.50;;;1.40;;
479;SDS011;226;48.606;9.096;2024-01-06T11:27:33;1.70;;;1.60;;
479;SDS011;226;48.606;9.096;2024-01-06T11:30:03;1.00;;;1.00;;
479;SDS011;226;48.606;9.096;2024-01-06T11:32:35;1.60;;;1.50;;
479;SDS011;226;48.606;9.096;2024-01-06T11:35:06;2.10;;;1.73;;
479;SDS011;226;48.606;9.096;2024-01-06T11:37:36;2.00;;;1.90;;
479;SDS011;226;48.606;9.096;2024-01-06T11:40:22;2.70;;;2.50;;
479;SDS011;226;48.606;9.096;2024-01-06T11:42:59;8.00;;;2.00;;
479;SDS011;226;48.606;9.096;2024-01-06T11:45:31;1.40;;;1.30;;
479;SDS011;226;48.606;9.096;2024-01-06T11:48:03;2.53;;;2.40;;
479;SDS011;226;48.606;9.096;2024-01-06T11:50:33;2.75;;;1.67;;
479;SDS011;226;48.606;9.096;2024-01-06T11:53:02;3.07;;;2.20;;
479;SDS011;226;48.606;9.096;2024-01-06T11:55:31;2.00;;;1.05;;
479;SDS011;226;48.606;9.096;2024-01-06T11:58:01;1.63;;;1.53;;
479;SDS011;226;48.606;9.096;2024-01-06T12:00:31;1.90;;;1.80;;
479;SDS011;226;48.606;9.096;2024-01-06T12:03:01;2.20;;;1.80;;
479;SDS011;226;48.606;9.096;2024-01-06T12:05:29;2.00;;;1.90;;
479;SDS011;226;48.606;9.096;2024-01-06T12:07:58;2.97;;;1.50;;
479;SDS011;226;48.606;9.096;2024-01-06T12:10:27;1.53;;;1.43;;
479;SDS011;226;48.606;9.096;2024-01-06T12:12:57;3.33;;;1.50;;
479;SDS011;226;48.606;9.096;2024-01-06T12:15:26;1.57;;;1.47;;
479;SDS011;226;48.606;9.096;2024-01-06T12:17:55;1.60;;;1.60;;
479;SDS011;226;48.606;9.096;2024-01-06T12:20:25;3.77;;;2.90;;
479;SDS011;226;48.606;9.096;2024-01-06T12:22:55;1.80;;;1.70;;
479;SDS011;226;48.606;9.096;2024-01-06T12:25:24;1.90;;;1.80;;
479;SDS011;226;48.606;9.096;2024-01-06T12:27:55;1.93;;;1.83;;
479;SDS011;226;48.606;9.096;2024-01-06T12:30:23;1.47;;;1.37;;
479;SDS011;226;48.606;9.096;2024-01-06T12:32:52;1.90;;;1.80;;
479;SDS011;226;48.606;9.096;2024-01-06T12:35:21;1.80;;;1.70;;
479;SDS011;226;48.606;9.096;2024-01-06T12:37:50;1.80;;;1.70;;
479;SDS011;226;48.606;9.096;2024-01-06T12:40:19;2.30;;;1.77;;
479;SDS011;226;48.606;9.096;2024-01-06T12:42:48;1.53;;;1.43;;
479;SDS011;226;48.606;9.096;2024-01-06T12:45:16;1.43;;;1.37;;
479;SDS011;226;48.606;9.096;2024-01-06T12:47:44;1.37;;;1.23;;
479;SDS011;226;48.606;9.096;2024-01-06T12:50:12;1.57;;;1.50;;
479;SDS011;226;48.606;9.096;2024-01-06T12:52:41;1.50;;;1.40;;
479;SDS011;226;48.606;9.096;2024-01-06T12:55:10;1.23;;;1.13;;
479;SDS011;226;48.606;9.096;2024-01-06T12:57:39;1.40;;;1.33;;
479;SDS011;226;48.606;9.096;2024-01-06T13:00:08;2.00;;;1.90;;
479;SDS011;226;48.606;9.096;2024-01-06T13:02:38;1.50;;;1.50;;
479;SDS011;226;48.606;9.096;2024-01-06T13:05:06;2.40;;;2.20;;
479;SDS011;226;48.606;9.096;2024-01-06T13:07:36;2.83;;;2.23;;
479;SDS011;226;48.606;9.096;2024-01-06T13:10:04;1.50;;;1.40;;
479;SDS011;226;48.606;9.096;2024-01-06T13:12:35;1.70;;;1.60;;
479;SDS011;226;48.606;9.096;2024-01-06T13:15:03;1.70;;;1.60;;
479;SDS011;226;48.606;9.096;2024-01-06T13:17:32;1.47;;;1.47;;
479;SDS011;226;48.606;9.096;2024-01-06T13:20:00;1.40;;;1.33;;
479;SDS011;226;48.606;9.096;2024-01-06T13:22:28;1.47;;;1.40;;
479;SDS011;226;48.606;9.096;2024-01-06T13:24:57;1.80;;;1.70;;
479;SDS011;226;48.606;9.096;2024-01-06T13:27:25;1.57;;;1.47;;
479;SDS011;226;48.606;9.096;2024-01-06T13:29:56;2.10;;;2.00;;
479;SDS011;226;48.606;9.096;2024-01-06T13:32:25;1.90;;;1.80;;
479;SDS011;226;48.606;9.096;2024-01-06T13:34:54;1.63;;;1.53;;
479;SDS011;226;48.606;9.096;2024-01-06T13:37:28;1.52;;;1.42;;
479;SDS011;226;48.606;9.096;2024-01-06T13:39:56;2.27;;;2.00;;
479;SDS011;226;48.606;9.096;2024-01-06T13:42:24;2.10;;;1.90;;
479;SDS011;226;48.606;9.096;2024-01-06T13:44:53;1.70;;;1.60;;
479;SDS011;226;48.606;9.096;2024-01-06T13:47:22;1.97;;;1.77;;
479;SDS011;226;48.606;9.096;2024-01-06T13:49:50;2.10;;;2.00;;
479;SDS011;226;48.606;9.096;2024-01-06T13:52:21;1.83;;;1.73;;
479;SDS011;226;48.606;9.096;2024-01-06T13:54:49;2.33;;;2.23;;
479;SDS011;226;48.606;9.096;2024-01-06T13:57:18;2.30;;;2.10;;
479;SDS011;226;48.606;9.096;2024-01-06T13:59:47;2.50;;;2.30;;
479;SDS011;226;48.606;9.096;2024-01-06T14:02:15;2.83;;;2.50;;
479;SDS011;226;48.606;9.096;2024-01-06T14:04:45;2.67;;;2.47;;
479;SDS011;226;48.606;9.096;2024-01-06T14:07:14;2.27;;;2.07;;
479;SDS011;226;48.606;9.096;2024-01-06T14:09:45;2.00;;;1.90;;
479;SDS011;226;48.606;9.096;2024-01-06T14:12:13;4.17;;;2.43;;
479;SDS011;226;48.606;9.096;2024-01-06T14:14:42;4.20;;;2.20;;
479;SDS011;226;48.606;9.096;2024-01-06T14:17:10;2.53;;;2.43;;
479;SDS011;226;48.606;9.096;2024-01-06T14:19:38;2.90;;;2.70;;
479;SDS011;226;48.606;9.096;2024-01-06T14:22:10;3.77;;;3.47;;
479;SDS011;226;48.606;9.096;2024-01-06T14:24:40;3.50;;;2.33;;
479;SDS011;226;48.606;9.096;2024-01-06T14:27:08;3.83;;;3.30;;
479;SDS011;226;48.606;9.096;2024-01-06T14:29:37;8.10;;;4.67;;
479;SDS011;226;48.606;9.096;2024-01-06T14:32:05;4.20;;;3.80;;
479;SDS011;226;48.606;9.096;2024-01-06T14:34:34;6.83;;;5.30;;
479;SDS011;226;48.606;9.096;2024-01-06T14:37:02;5.83;;;3.70;;
479;SDS011;226;48.606;9.096;2024-01-06T14:39:32;4.47;;;3.47;;
479;SDS011;226;48.606;9.096;2024-01-06T14:42:03;4.30;;;3.90;;
479;SDS011;226;48.606;9.096;2024-01-06T14:44:31;4.87;;;3.37;;
479;SDS011;226;48.606;9.096;2024-01-06T14:46:59;3.20;;;2.90;;
479;SDS011;226;48.606;9.096;2024-01-06T14:49:28;4.57;;;4.17;;
479;SDS011;226;48.606;9.096;2024-01-06T14:51:56;3.43;;;3.13;;
479;SDS011;226;48.606;9.096;2024-01-06T14:54:32;3.30;;;3.00;;
479;SDS011;226;48.606;9.096;2024-01-06T14:57:02;2.80;;;2.60;;
479;SDS011;226;48.606;9.096;2024-01-06T14:59:30;6.00;;;4.70;;
479;SDS011;226;48.606;9.096;2024-01-06T15:01:59;4.70;;;3.77;;
479;SDS011;226;48.606;9.096;2024-01-06T15:04:27;6.30;;;4.43;;
479;SDS011;226;48.606;9.096;2024-01-06T15:06:56;4.63;;;3.60;;
479;SDS011;226;48.606;9.096;2024-01-06T15:09:24;4.20;;;3.70;;
479;SDS011;226;48.606;9.096;2024-01-06T15:11:55;4.73;;;4.00;;
479;SDS011;226;48.606;9.096;2024-01-06T15:14:24;4.07;;;3.67;;
479;SDS011;226;48.606;9.096;2024-01-06T15:16:52;5.83;;;4.80;;
479;SDS011;226;48.606;9.096;2024-01-06T15:19:20;5.20;;;4.57;;
479;SDS011;226;48.606;9.096;2024-01-06T15:21:50;4.10;;;3.70;;
479;SDS011;226;48.606;9.096;2024-01-06T15:24:18;4.90;;;4.17;;
479;SDS011;226;48.606;9.096;2024-01-06T15:26:46;5.20;;;4.70;;
479;SDS011;226;48.606;9.096;2024-01-06T15:29:16;6.00;;;5.10;;
479;SDS011;226;48.606;9.096;2024-01-06T15:31:43;5.70;;;4.70;;
479;SDS011;226;48.606;9.096;2024-01-06T15:34:11;6.03;;;4.27;;
479;SDS011;226;48.606;9.096;2024-01-06T15:36:40;6.63;;;4.10;;
479;SDS011;226;48.606;9.096;2024-01-06T15:39:08;5.40;;;4.13;;
479;SDS011;226;48.606;9.096;2024-01-06T15:41:36;6.10;;;4.47;;
479;SDS011;226;48.606;9.096;2024-01-06T15:44:04;6.30;;;5.30;;
479;SDS011;226;48.606;9.096;2024-01-06T15:46:34;4.93;;;4.10;;
479;SDS011;226;48.606;9.096;2024-01-06T15:49:02;8.43;;;4.47;;
479;SDS011;226;48.606;9.096;2024-01-06T15:51:30;6.80;;;4.70;;
479;SDS011;226;48.606;9.096;2024-01-06T15:53:58;5.53;;;4.83;;
479;SDS011;226;48.606;9.096;2024-01-06T15:56:26;5.47;;;3.70;;
479;SDS011;226;48.606;9.096;2024-01-06T15:58:54;10.83;;;5.87;;